sensor_id;sensor_type;location;lat;lon;timestamp;P1;durP1;ratioP1;P2;durP2;ratioP2
1799;SDS011;919;48.274;12.292;2022-10-03T00:01:17;3.00;;;2.80;;
1799;SDS011;919;48.274;12.292;2022-10-03T00:04:06;3.30;;;3.00;;
1799;SDS011;919;48.274;12.292;2022-10-03T00:06:43;4.20;;;3.80;;
1799;SDS011;919;48.274;12.292;2022-10-03T00:09:23;4.23;;;3.83;;
1799;SDS011;919;48.274;12.292;2022-10-03T00:12:04;4.23;;;3.37;;
1799;SDS011;919;48.274;12.292;2022-10-03T00:14:42;4.03;;;3.73;;
1799;SDS011;919;48.274;12.292;2022-10-03T00:17:20;3.57;;;3.23;;
1799;SDS011;919;48.274;12.292;2022-10-03T00:19:57;6.63;;;4.13;;
1799;SDS011;919;48.274;12.292;2022-10-03T00:22:33;6.00;;;4.97;;
1799;SDS011;919;48.274;12.292;2022-10-03T00:25:17;3.77;;;3.40;;
1799;SDS011;919;48.274;12.292;2022-10-03T00:27:53;4.10;;;3.70;;
1799;SDS011;919;48.274;12.292;2022-10-03T00:30:41;3.77;;;3.23;;
1799;SDS011;919;48.274;12.292;2022-10-03T00:33:27;3.90;;;3.60;;
1799;SDS011;919;48.274;12.292;2022-10-03T00:36:05;4.80;;;4.30;;
1799;SDS011;919;48.274;12.292;2022-10-03T00:38:40;4.20;;;3.20;;
1799;SDS011;919;48.274;12.292;2022-10-03T00:41:26;6.03;;;4.23;;
1799;SDS011;919;48.274;12.292;2022-10-03T00:44:26;3.60;;;3.23;;
1799;SDS011;919;48.274;12.292;2022-10-03T00:47:20;4.20;;;3.60;;
1799;SDS011;919;48.274;12.292;2022-10-03T00:49:59;3.87;;;3.50;;
1799;SDS011;919;48.274;12.292;2022-10-03T00:55:45;2.77;;;2.57;;
1799;SDS011;919;48.274;12.292;2022-10-03T00:58:28;3.90;;;3.27;;
1799;SDS011;919;48.274;12.292;2022-10-03T01:01:22;3.47;;;2.60;;
1799;SDS011;919;48.274;12.292;2022-10-03T01:03:58;4.37;;;3.60;;
1799;SDS011;919;48.274;12.292;2022-10-03T01:06:40;4.40;;;3.27;;
1799;SDS011;919;48.274;12.292;2022-10-03T01:09:17;3.93;;;3.50;;
1799;SDS011;919;48.274;12.292;2022-10-03T01:11:59;3.23;;;2.93;;
1799;SDS011;919;48.274;12.292;2022-10-03T01:14:46;3.83;;;3.53;;
1799;SDS011;919;48.274;12.292;2022-10-03T01:17:32;3.97;;;3.63;;
1799;SDS011;919;48.274;12.292;2022-10-03T01:20:12;3.90;;;3.53;;
1799;SDS011;919;48.274;12.292;2022-10-03T01:23:22;3.63;;;3.33;;
1799;SDS011;919;48.274;12.292;2022-10-03T01:26:13;2.90;;;2.70;;
1799;SDS011;919;48.274;12.292;2022-10-03T01:28:50;2.77;;;2.57;;
1799;SDS011;919;48.274;12.292;2022-10-03T01:31:42;5.80;;;3.27;;
1799;SDS011;919;48.274;12.292;2022-10-03T01:34:19;3.53;;;3.23;;
1799;SDS011;919;48.274;12.292;2022-10-03T01:36:53;3.30;;;3.00;;
1799;SDS011;919;48.274;12.292;2022-10-03T01:39:31;3.73;;;2.00;;
1799;SDS011;919;48.274;12.292;2022-10-03T01:42:05;2.80;;;2.60;;
1799;SDS011;919;48.274;12.292;2022-10-03T01:44:40;3.47;;;3.17;;
1799;SDS011;919;48.274;12.292;2022-10-03T01:47:21;3.80;;;3.40;;
1799;SDS011;919;48.274;12.292;2022-10-03T01:50:03;3.57;;;2.80;;
1799;SDS011;919;48.274;12.292;2022-10-03T01:52:40;5.97;;;4.30;;
1799;SDS011;919;48.274;12.292;2022-10-03T01:55:18;3.40;;;3.10;;
1799;SDS011;919;48.274;12.292;2022-10-03T01:57:52;4.13;;;3.33;;
1799;SDS011;919;48.274;12.292;2022-10-03T02:00:29;4.47;;;4.07;;
1799;SDS011;919;48.274;12.292;2022-10-03T02:03:02;6.10;;;4.13;;
1799;SDS011;919;48.274;12.292;2022-10-03T02:05:36;4.03;;;3.60;;
1799;SDS011;919;48.274;12.292;2022-10-03T02:08:09;6.40;;;5.00;;
1799;SDS011;919;48.274;12.292;2022-10-03T02:10:50;3.37;;;3.07;;
1799;SDS011;919;48.274;12.292;2022-10-03T02:13:24;4.80;;;3.37;;
1799;SDS011;919;48.274;12.292;2022-10-03T02:16:00;5.73;;;4.20;;
1799;SDS011;919;48.274;12.292;2022-10-03T02:18:34;5.87;;;4.60;;
1799;SDS011;919;48.274;12.292;2022-10-03T02:21:11;6.80;;;4.03;;
1799;SDS011;919;48.274;12.292;2022-10-03T02:23:43;4.50;;;3.50;;
1799;SDS011;919;48.274;12.292;2022-10-03T02:26:19;4.73;;;4.20;;
1799;SDS011;919;48.274;12.292;2022-10-03T02:32:11;6.30;;;4.93;;
1799;SDS011;919;48.274;12.292;2022-10-03T02:35:31;7.80;;;4.90;;
1799;SDS011;919;48.274;12.292;2022-10-03T02:41:15;5.20;;;4.70;;
1799;SDS011;919;48.274;12.292;2022-10-03T02:44:05;5.53;;;4.90;;
1799;SDS011;919;48.274;12.292;2022-10-03T02:53:29;7.70;;;5.93;;
1799;SDS011;919;48.274;12.292;2022-10-03T02:56:22;8.47;;;7.00;;
1799;SDS011;919;48.274;12.292;2022-10-03T03:02:10;6.73;;;6.03;;
1799;SDS011;919;48.274;12.292;2022-10-03T03:08:05;12.13;;;6.90;;
1799;SDS011;919;48.274;12.292;2022-10-03T03:11:29;7.37;;;5.93;;
1799;SDS011;919;48.274;12.292;2022-10-03T03:17:27;8.27;;;6.30;;
1799;SDS011;919;48.274;12.292;2022-10-03T03:20:03;7.80;;;6.47;;
1799;SDS011;919;48.274;12.292;2022-10-03T03:22:49;6.67;;;6.00;;
1799;SDS011;919;48.274;12.292;2022-10-03T03:25:32;6.80;;;5.90;;
1799;SDS011;919;48.274;12.292;2022-10-03T03:28:12;8.13;;;5.43;;
1799;SDS011;919;48.274;12.292;2022-10-03T03:30:50;11.53;;;7.10;;
1799;SDS011;919;48.274;12.292;2022-10-03T03:33:24;10.47;;;6.37;;
1799;SDS011;919;48.274;12.292;2022-10-03T03:36:04;10.73;;;6.77;;
1799;SDS011;919;48.274;12.292;2022-10-03T03:38:40;7.10;;;5.93;;
1799;SDS011;919;48.274;12.292;2022-10-03T03:41:22;8.27;;;6.80;;
1799;SDS011;919;48.274;12.292;2022-10-03T03:50:15;9.63;;;7.30;;
1799;SDS011;919;48.274;12.292;2022-10-03T03:53:04;7.90;;;7.10;;
1799;SDS011;919;48.274;12.292;2022-10-03T03:55:50;10.87;;;6.40;;
1799;SDS011;919;48.274;12.292;2022-10-03T03:58:32;7.00;;;5.63;;
1799;SDS011;919;48.274;12.292;2022-10-03T04:01:12;6.93;;;5.37;;
1799;SDS011;919;48.274;12.292;2022-10-03T04:03:59;6.53;;;5.13;;
1799;SDS011;919;48.274;12.292;2022-10-03T04:06:40;7.83;;;6.50;;
1799;SDS011;919;48.274;12.292;2022-10-03T04:09:19;7.10;;;5.90;;
1799;SDS011;919;48.274;12.292;2022-10-03T04:12:01;7.50;;;5.90;;
1799;SDS011;919;48.274;12.292;2022-10-03T04:14:39;6.80;;;5.20;;
1799;SDS011;919;48.274;12.292;2022-10-03T04:17:32;5.53;;;4.70;;
1799;SDS011;919;48.274;12.292;2022-10-03T04:20:44;9.53;;;5.73;;
1799;SDS011;919;48.274;12.292;2022-10-03T04:23:30;9.30;;;5.47;;
1799;SDS011;919;48.274;12.292;2022-10-03T04:26:10;8.50;;;5.50;;
1799;SDS011;919;48.274;12.292;2022-10-03T04:28:56;7.90;;;5.40;;
1799;SDS011;919;48.274;12.292;2022-10-03T04:31:47;8.03;;;4.47;;
1799;SDS011;919;48.274;12.292;2022-10-03T04:34:26;10.30;;;5.10;;
1799;SDS011;919;48.274;12.292;2022-10-03T04:37:06;5.30;;;4.53;;
1799;SDS011;919;48.274;12.292;2022-10-03T04:39:43;5.30;;;4.77;;
1799;SDS011;919;48.274;12.292;2022-10-03T04:42:19;14.63;;;5.60;;
1799;SDS011;919;48.274;12.292;2022-10-03T04:44:56;7.90;;;5.27;;
1799;SDS011;919;48.274;12.292;2022-10-03T04:47:38;5.67;;;4.83;;
1799;SDS011;919;48.274;12.292;2022-10-03T04:50:17;6.47;;;5.50;;
1799;SDS011;919;48.274;12.292;2022-10-03T04:52:55;10.17;;;6.17;;
1799;SDS011;919;48.274;12.292;2022-10-03T04:55:32;8.23;;;6.53;;
1799;SDS011;919;48.274;12.292;2022-10-03T04:58:12;10.53;;;5.77;;
1799;SDS011;919;48.274;12.292;2022-10-03T05:00:47;7.60;;;6.87;;
1799;SDS011;919;48.274;12.292;2022-10-03T05:03:26;6.17;;;5.47;;
1799;SDS011;919;48.274;12.292;2022-10-03T05:06:03;6.80;;;5.37;;
1799;SDS011;919;48.274;12.292;2022-10-03T05:08:42;7.40;;;6.57;;
1799;SDS011;919;48.274;12.292;2022-10-03T05:11:18;7.77;;;5.67;;
1799;SDS011;919;48.274;12.292;2022-10-03T05:13:57;6.50;;;5.37;;
1799;SDS011;919;48.274;12.292;2022-10-03T05:16:39;6.97;;;6.27;;
1799;SDS011;919;48.274;12.292;2022-10-03T05:19:23;6.07;;;5.40;;
1799;SDS011;919;48.274;12.292;2022-10-03T05:22:23;15.13;;;6.40;;
1799;SDS011;919;48.274;12.292;2022-10-03T05:25:08;6.70;;;5.80;;
1799;SDS011;919;48.274;12.292;2022-10-03T05:27:49;9.00;;;5.73;;
1799;SDS011;919;48.274;12.292;2022-10-03T05:30:21;7.00;;;6.30;;
1799;SDS011;919;48.274;12.292;2022-10-03T05:33:00;6.63;;;5.93;;
1799;SDS011;919;48.274;12.292;2022-10-03T05:35:39;8.47;;;5.90;;
1799;SDS011;919;48.274;12.292;2022-10-03T05:41:31;9.43;;;6.70;;
1799;SDS011;919;48.274;12.292;2022-10-03T05:44:02;6.80;;;6.10;;
1799;SDS011;919;48.274;12.292;2022-10-03T05:46:48;7.30;;;6.23;;
1799;SDS011;919;48.274;12.292;2022-10-03T05:52:22;7.00;;;5.90;;
1799;SDS011;919;48.274;12.292;2022-10-03T05:55:11;7.13;;;6.03;;
1799;SDS011;919;48.274;12.292;2022-10-03T05:58:00;9.60;;;6.33;;
1799;SDS011;919;48.274;12.292;2022-10-03T06:00:58;11.27;;;6.10;;
1799;SDS011;919;48.274;12.292;2022-10-03T06:03:51;8.73;;;6.10;;
1799;SDS011;919;48.274;12.292;2022-10-03T06:06:30;7.93;;;7.10;;
1799;SDS011;919;48.274;12.292;2022-10-03T06:09:29;8.90;;;7.43;;
1799;SDS011;919;48.274;12.292;2022-10-03T06:12:07;7.43;;;6.63;;
1799;SDS011;919;48.274;12.292;2022-10-03T06:14:47;11.50;;;7.33;;
1799;SDS011;919;48.274;12.292;2022-10-03T06:41:40;8.63;;;6.70;;
1799;SDS011;919;48.274;12.292;2022-10-03T06:44:39;8.57;;;7.00;;
1799;SDS011;919;48.274;12.292;2022-10-03T06:47:24;9.70;;;7.70;;
1799;SDS011;919;48.274;12.292;2022-10-03T06:56:21;9.40;;;6.30;;
1799;SDS011;919;48.274;12.292;2022-10-03T06:59:14;7.73;;;5.93;;
1799;SDS011;919;48.274;12.292;2022-10-03T07:05:15;7.60;;;6.70;;
1799;SDS011;919;48.274;12.292;2022-10-03T07:08:14;10.10;;;6.57;;
1799;SDS011;919;48.274;12.292;2022-10-03T07:11:03;8.43;;;6.63;;
1799;SDS011;919;48.274;12.292;2022-10-03T07:14:02;10.43;;;7.10;;
1799;SDS011;919;48.274;12.292;2022-10-03T07:16:59;12.80;;;6.27;;
1799;SDS011;919;48.274;12.292;2022-10-03T07:20:02;6.73;;;6.00;;
1799;SDS011;919;48.274;12.292;2022-10-03T07:23:03;8.63;;;5.80;;
1799;SDS011;919;48.274;12.292;2022-10-03T07:26:12;8.70;;;6.47;;
1799;SDS011;919;48.274;12.292;2022-10-03T07:29:17;9.00;;;6.50;;
1799;SDS011;919;48.274;12.292;2022-10-03T07:41:39;8.70;;;6.13;;
1799;SDS011;919;48.274;12.292;2022-10-03T07:50:48;8.03;;;5.80;;
1799;SDS011;919;48.274;12.292;2022-10-03T08:06:06;8.97;;;6.53;;
1799;SDS011;919;48.274;12.292;2022-10-03T08:12:15;6.93;;;5.10;;
1799;SDS011;919;48.274;12.292;2022-10-03T08:15:07;4.87;;;4.47;;
1799;SDS011;919;48.274;12.292;2022-10-03T08:20:53;9.83;;;5.50;;
1799;SDS011;919;48.274;12.292;2022-10-03T08:23:34;12.40;;;5.30;;
1799;SDS011;919;48.274;12.292;2022-10-03T08:26:17;9.70;;;6.00;;
1799;SDS011;919;48.274;12.292;2022-10-03T08:31:54;6.03;;;5.30;;
1799;SDS011;919;48.274;12.292;2022-10-03T08:40:58;6.10;;;5.50;;
1799;SDS011;919;48.274;12.292;2022-10-03T08:53:04;6.10;;;5.50;;
1799;SDS011;919;48.274;12.292;2022-10-03T08:55:59;10.53;;;4.50;;
1799;SDS011;919;48.274;12.292;2022-10-03T09:05:03;8.83;;;5.30;;
1799;SDS011;919;48.274;12.292;2022-10-03T09:14:25;4.97;;;4.40;;
1799;SDS011;919;48.274;12.292;2022-10-03T09:23:01;5.10;;;3.90;;
1799;SDS011;919;48.274;12.292;2022-10-03T09:25:51;4.80;;;3.97;;
1799;SDS011;919;48.274;12.292;2022-10-03T09:28:51;4.43;;;3.53;;
1799;SDS011;919;48.274;12.292;2022-10-03T09:32:06;5.33;;;3.30;;
1799;SDS011;919;48.274;12.292;2022-10-03T09:38:08;11.53;;;4.80;;
1799;SDS011;919;48.274;12.292;2022-10-03T09:41:25;5.23;;;4.20;;
1799;SDS011;919;48.274;12.292;2022-10-03T09:44:36;5.17;;;3.50;;
1799;SDS011;919;48.274;12.292;2022-10-03T09:47:45;6.20;;;4.20;;
1799;SDS011;919;48.274;12.292;2022-10-03T09:50:42;7.47;;;5.23;;
1799;SDS011;919;48.274;12.292;2022-10-03T09:53:27;4.50;;;4.10;;
1799;SDS011;919;48.274;12.292;2022-10-03T09:56:15;8.80;;;4.90;;
1799;SDS011;919;48.274;12.292;2022-10-03T09:59:13;5.73;;;4.90;;
1799;SDS011;919;48.274;12.292;2022-10-03T10:01:57;10.03;;;5.23;;
1799;SDS011;919;48.274;12.292;2022-10-03T10:04:39;6.10;;;4.60;;
1799;SDS011;919;48.274;12.292;2022-10-03T10:10:47;5.87;;;4.63;;
1799;SDS011;919;48.274;12.292;2022-10-03T10:13:36;6.00;;;4.60;;
1799;SDS011;919;48.274;12.292;2022-10-03T10:16:38;5.17;;;4.67;;
1799;SDS011;919;48.274;12.292;2022-10-03T10:19:31;6.20;;;3.87;;
1799;SDS011;919;48.274;12.292;2022-10-03T10:22:21;5.23;;;4.07;;
1799;SDS011;919;48.274;12.292;2022-10-03T10:25:22;7.33;;;4.40;;
1799;SDS011;919;48.274;12.292;2022-10-03T10:28:16;4.40;;;4.00;;
1799;SDS011;919;48.274;12.292;2022-10-03T10:31:20;7.17;;;4.40;;
1799;SDS011;919;48.274;12.292;2022-10-03T10:37:34;8.37;;;3.30;;
1799;SDS011;919;48.274;12.292;2022-10-03T10:40:35;5.17;;;3.90;;
1799;SDS011;919;48.274;12.292;2022-10-03T10:43:33;9.27;;;5.13;;
1799;SDS011;919;48.274;12.292;2022-10-03T10:46:44;3.70;;;3.03;;
1799;SDS011;919;48.274;12.292;2022-10-03T10:50:22;6.53;;;3.70;;
1799;SDS011;919;48.274;12.292;2022-10-03T10:56:37;7.40;;;3.93;;
1799;SDS011;919;48.274;12.292;2022-10-03T10:59:36;5.97;;;4.10;;
1799;SDS011;919;48.274;12.292;2022-10-03T11:18:13;6.87;;;3.43;;
1799;SDS011;919;48.274;12.292;2022-10-03T11:31:05;9.20;;;4.20;;
1799;SDS011;919;48.274;12.292;2022-10-03T11:33:59;5.90;;;3.37;;
1799;SDS011;919;48.274;12.292;2022-10-03T11:36:57;6.00;;;3.83;;
1799;SDS011;919;48.274;12.292;2022-10-03T11:39:39;4.00;;;3.23;;
1799;SDS011;919;48.274;12.292;2022-10-03T11:42:18;3.90;;;3.03;;
1799;SDS011;919;48.274;12.292;2022-10-03T11:44:57;4.17;;;3.00;;
1799;SDS011;919;48.274;12.292;2022-10-03T11:47:32;3.37;;;3.07;;
1799;SDS011;919;48.274;12.292;2022-10-03T11:50:15;3.40;;;3.10;;
1799;SDS011;919;48.274;12.292;2022-10-03T11:53:10;7.63;;;3.90;;
1799;SDS011;919;48.274;12.292;2022-10-03T11:56:05;6.93;;;3.80;;
1799;SDS011;919;48.274;12.292;2022-10-03T11:58:59;3.97;;;2.77;;
1799;SDS011;919;48.274;12.292;2022-10-03T12:01:55;4.63;;;4.13;;
1799;SDS011;919;48.274;12.292;2022-10-03T12:04:38;4.53;;;3.20;;
1799;SDS011;919;48.274;12.292;2022-10-03T12:07:17;5.33;;;3.10;;
1799;SDS011;919;48.274;12.292;2022-10-03T12:10:14;7.33;;;3.80;;
1799;SDS011;919;48.274;12.292;2022-10-03T12:12:53;3.27;;;2.97;;
1799;SDS011;919;48.274;12.292;2022-10-03T12:15:25;3.97;;;3.03;;
1799;SDS011;919;48.274;12.292;2022-10-03T12:18:01;5.33;;;2.63;;
1799;SDS011;919;48.274;12.292;2022-10-03T12:20:36;4.03;;;2.90;;
1799;SDS011;919;48.274;12.292;2022-10-03T12:23:23;4.43;;;2.77;;
1799;SDS011;919;48.274;12.292;2022-10-03T12:25:59;4.63;;;3.40;;
1799;SDS011;919;48.274;12.292;2022-10-03T12:28:28;4.30;;;2.90;;
1799;SDS011;919;48.274;12.292;2022-10-03T12:31:05;4.63;;;3.47;;
1799;SDS011;919;48.274;12.292;2022-10-03T12:33:44;4.97;;;2.53;;
1799;SDS011;919;48.274;12.292;2022-10-03T12:36:17;9.63;;;3.27;;
1799;SDS011;919;48.274;12.292;2022-10-03T12:41:53;5.17;;;2.50;;
1799;SDS011;919;48.274;12.292;2022-10-03T12:44:30;5.57;;;2.60;;
1799;SDS011;919;48.274;12.292;2022-10-03T12:47:11;6.83;;;2.17;;
1799;SDS011;919;48.274;12.292;2022-10-03T12:49:51;2.57;;;1.90;;
1799;SDS011;919;48.274;12.292;2022-10-03T12:52:25;6.07;;;2.87;;
1799;SDS011;919;48.274;12.292;2022-10-03T12:55:00;3.03;;;2.73;;
1799;SDS011;919;48.274;12.292;2022-10-03T12:57:46;4.33;;;2.90;;
1799;SDS011;919;48.274;12.292;2022-10-03T13:00:20;4.30;;;3.10;;
1799;SDS011;919;48.274;12.292;2022-10-03T13:03:05;4.77;;;3.07;;
1799;SDS011;919;48.274;12.292;2022-10-03T13:06:08;13.50;;;4.50;;
1799;SDS011;919;48.274;12.292;2022-10-03T13:08:57;3.20;;;2.30;;
1799;SDS011;919;48.274;12.292;2022-10-03T13:11:38;2.93;;;2.53;;
1799;SDS011;919;48.274;12.292;2022-10-03T13:14:21;5.10;;;2.50;;
1799;SDS011;919;48.274;12.292;2022-10-03T13:16:58;3.17;;;2.70;;
1799;SDS011;919;48.274;12.292;2022-10-03T13:19:32;8.73;;;3.40;;
1799;SDS011;919;48.274;12.292;2022-10-03T13:22:10;4.47;;;3.03;;
1799;SDS011;919;48.274;12.292;2022-10-03T13:24:53;2.50;;;2.30;;
1799;SDS011;919;48.274;12.292;2022-10-03T13:27:31;2.30;;;2.10;;
1799;SDS011;919;48.274;12.292;2022-10-03T13:30:04;5.13;;;2.40;;
1799;SDS011;919;48.274;12.292;2022-10-03T13:32:38;4.00;;;1.97;;
1799;SDS011;919;48.274;12.292;2022-10-03T13:35:21;2.93;;;2.20;;
1799;SDS011;919;48.274;12.292;2022-10-03T13:38:19;4.50;;;2.30;;
1799;SDS011;919;48.274;12.292;2022-10-03T13:41:19;2.03;;;1.60;;
1799;SDS011;919;48.274;12.292;2022-10-03T13:43:55;2.33;;;1.83;;
1799;SDS011;919;48.274;12.292;2022-10-03T13:46:26;2.50;;;1.83;;
1799;SDS011;919;48.274;12.292;2022-10-03T13:49:02;1.60;;;1.50;;
1799;SDS011;919;48.274;12.292;2022-10-03T13:51:39;4.00;;;1.90;;
1799;SDS011;919;48.274;12.292;2022-10-03T13:54:12;3.87;;;1.97;;
1799;SDS011;919;48.274;12.292;2022-10-03T13:56:53;2.13;;;2.00;;
1799;SDS011;919;48.274;12.292;2022-10-03T13:59:35;1.90;;;1.77;;
1799;SDS011;919;48.274;12.292;2022-10-03T14:02:16;2.13;;;1.93;;
1799;SDS011;919;48.274;12.292;2022-10-03T14:05:19;9.57;;;2.67;;
1799;SDS011;919;48.274;12.292;2022-10-03T14:07:58;3.63;;;2.07;;
1799;SDS011;919;48.274;12.292;2022-10-03T14:10:42;2.20;;;1.87;;
1799;SDS011;919;48.274;12.292;2022-10-03T14:13:31;2.30;;;1.80;;
1799;SDS011;919;48.274;12.292;2022-10-03T14:16:11;3.10;;;1.90;;
1799;SDS011;919;48.274;12.292;2022-10-03T14:18:47;6.27;;;2.13;;
1799;SDS011;919;48.274;12.292;2022-10-03T14:21:29;1.63;;;1.53;;
1799;SDS011;919;48.274;12.292;2022-10-03T14:24:11;1.83;;;1.70;;
1799;SDS011;919;48.274;12.292;2022-10-03T14:26:46;4.80;;;1.53;;
1799;SDS011;919;48.274;12.292;2022-10-03T14:29:19;3.30;;;1.57;;
1799;SDS011;919;48.274;12.292;2022-10-03T14:31:53;2.43;;;1.73;;
1799;SDS011;919;48.274;12.292;2022-10-03T14:37:17;2.83;;;1.40;;
1799;SDS011;919;48.274;12.292;2022-10-03T14:39:55;2.30;;;1.80;;
1799;SDS011;919;48.274;12.292;2022-10-03T14:45:28;2.70;;;1.73;;
1799;SDS011;919;48.274;12.292;2022-10-03T14:47:59;2.63;;;1.80;;
1799;SDS011;919;48.274;12.292;2022-10-03T14:50:32;2.47;;;1.70;;
1799;SDS011;919;48.274;12.292;2022-10-03T14:53:04;2.90;;;1.83;;
1799;SDS011;919;48.274;12.292;2022-10-03T14:55:38;1.57;;;1.47;;
1799;SDS011;919;48.274;12.292;2022-10-03T14:58:12;2.63;;;1.60;;
1799;SDS011;919;48.274;12.292;2022-10-03T15:00:46;1.53;;;1.40;;
1799;SDS011;919;48.274;12.292;2022-10-03T15:03:20;1.77;;;1.50;;
1799;SDS011;919;48.274;12.292;2022-10-03T15:06:17;2.57;;;1.53;;
1799;SDS011;919;48.274;12.292;2022-10-03T15:08:47;1.63;;;1.53;;
1799;SDS011;919;48.274;12.292;2022-10-03T15:11:20;2.67;;;2.47;;
1799;SDS011;919;48.274;12.292;2022-10-03T15:13:52;3.67;;;1.50;;
1799;SDS011;919;48.274;12.292;2022-10-03T15:16:22;2.93;;;1.30;;
1799;SDS011;919;48.274;12.292;2022-10-03T15:18:51;5.80;;;2.03;;
1799;SDS011;919;48.274;12.292;2022-10-03T15:21:21;2.37;;;1.20;;
1799;SDS011;919;48.274;12.292;2022-10-03T15:23:52;3.30;;;1.50;;
1799;SDS011;919;48.274;12.292;2022-10-03T15:26:22;2.00;;;1.50;;
1799;SDS011;919;48.274;12.292;2022-10-03T15:28:52;1.63;;;1.50;;
1799;SDS011;919;48.274;12.292;2022-10-03T15:31:26;1.73;;;1.40;;
1799;SDS011;919;48.274;12.292;2022-10-03T15:33:58;1.50;;;1.40;;
1799;SDS011;919;48.274;12.292;2022-10-03T15:36:28;1.90;;;1.30;;
1799;SDS011;919;48.274;12.292;2022-10-03T15:39:02;4.13;;;1.60;;
1799;SDS011;919;48.274;12.292;2022-10-03T15:41:33;1.90;;;1.40;;
1799;SDS011;919;48.274;12.292;2022-10-03T15:44:02;1.07;;;0.97;;
1799;SDS011;919;48.274;12.292;2022-10-03T15:46:38;0.90;;;0.90;;
1799;SDS011;919;48.274;12.292;2022-10-03T15:49:09;1.07;;;1.07;;
1799;SDS011;919;48.274;12.292;2022-10-03T15:51:46;1.77;;;1.40;;
1799;SDS011;919;48.274;12.292;2022-10-03T15:54:14;2.60;;;1.47;;
1799;SDS011;919;48.274;12.292;2022-10-03T15:56:45;2.50;;;1.10;;
1799;SDS011;919;48.274;12.292;2022-10-03T15:59:18;4.00;;;1.70;;
1799;SDS011;919;48.274;12.292;2022-10-03T16:01:49;1.97;;;1.40;;
1799;SDS011;919;48.274;12.292;2022-10-03T16:04:19;1.83;;;1.00;;
1799;SDS011;919;48.274;12.292;2022-10-03T16:06:49;1.70;;;1.20;;
1799;SDS011;919;48.274;12.292;2022-10-03T16:09:28;1.10;;;1.00;;
1799;SDS011;919;48.274;12.292;2022-10-03T16:12:08;1.50;;;1.40;;
1799;SDS011;919;48.274;12.292;2022-10-03T16:14:54;2.83;;;1.37;;
1799;SDS011;919;48.274;12.292;2022-10-03T16:17:34;1.53;;;1.43;;
1799;SDS011;919;48.274;12.292;2022-10-03T16:20:08;1.70;;;1.40;;
1799;SDS011;919;48.274;12.292;2022-10-03T16:22:43;1.40;;;1.27;;
1799;SDS011;919;48.274;12.292;2022-10-03T16:25:15;2.87;;;1.20;;
1799;SDS011;919;48.274;12.292;2022-10-03T16:27:45;1.77;;;1.30;;
1799;SDS011;919;48.274;12.292;2022-10-03T16:30:19;1.30;;;1.20;;
1799;SDS011;919;48.274;12.292;2022-10-03T16:32:51;1.30;;;1.20;;
1799;SDS011;919;48.274;12.292;2022-10-03T16:35:32;2.60;;;1.57;;
1799;SDS011;919;48.274;12.292;2022-10-03T16:38:02;1.00;;;0.97;;
1799;SDS011;919;48.274;12.292;2022-10-03T16:40:33;1.07;;;0.97;;
1799;SDS011;919;48.274;12.292;2022-10-03T16:43:02;3.20;;;1.37;;
1799;SDS011;919;48.274;12.292;2022-10-03T16:45:34;4.20;;;1.63;;
1799;SDS011;919;48.274;12.292;2022-10-03T16:48:10;1.23;;;1.10;;
1799;SDS011;919;48.274;12.292;2022-10-03T16:51:01;1.40;;;1.20;;
1799;SDS011;919;48.274;12.292;2022-10-03T16:53:31;1.70;;;1.60;;
1799;SDS011;919;48.274;12.292;2022-10-03T16:56:03;1.80;;;1.53;;
1799;SDS011;919;48.274;12.292;2022-10-03T16:58:33;3.10;;;1.33;;
1799;SDS011;919;48.274;12.292;2022-10-03T17:01:05;2.33;;;1.20;;
1799;SDS011;919;48.274;12.292;2022-10-03T17:03:35;2.63;;;1.90;;
1799;SDS011;919;48.274;12.292;2022-10-03T17:06:12;1.90;;;1.80;;
1799;SDS011;919;48.274;12.292;2022-10-03T17:08:49;1.80;;;1.70;;
1799;SDS011;919;48.274;12.292;2022-10-03T17:11:18;2.20;;;1.60;;
1799;SDS011;919;48.274;12.292;2022-10-03T17:13:51;2.00;;;1.80;;
1799;SDS011;919;48.274;12.292;2022-10-03T17:16:23;1.50;;;1.40;;
1799;SDS011;919;48.274;12.292;2022-10-03T17:19:03;2.00;;;1.50;;
1799;SDS011;919;48.274;12.292;2022-10-03T17:21:40;1.63;;;1.53;;
1799;SDS011;919;48.274;12.292;2022-10-03T17:24:14;1.40;;;1.30;;
1799;SDS011;919;48.274;12.292;2022-10-03T17:26:47;1.80;;;1.30;;
1799;SDS011;919;48.274;12.292;2022-10-03T17:29:19;3.43;;;1.90;;
1799;SDS011;919;48.274;12.292;2022-10-03T17:31:54;1.83;;;1.73;;
1799;SDS011;919;48.274;12.292;2022-10-03T17:34:28;2.63;;;2.43;;
1799;SDS011;919;48.274;12.292;2022-10-03T17:37:03;3.13;;;2.80;;
1799;SDS011;919;48.274;12.292;2022-10-03T17:39:52;5.00;;;2.77;;
1799;SDS011;919;48.274;12.292;2022-10-03T17:42:32;2.37;;;1.90;;
1799;SDS011;919;48.274;12.292;2022-10-03T17:48:07;2.80;;;2.50;;
1799;SDS011;919;48.274;12.292;2022-10-03T17:50:42;2.60;;;2.40;;
1799;SDS011;919;48.274;12.292;2022-10-03T17:53:20;3.40;;;3.10;;
1799;SDS011;919;48.274;12.292;2022-10-03T17:55:54;3.77;;;3.47;;
1799;SDS011;919;48.274;12.292;2022-10-03T17:58:24;4.83;;;3.37;;
1799;SDS011;919;48.274;12.292;2022-10-03T18:01:00;6.00;;;2.90;;
1799;SDS011;919;48.274;12.292;2022-10-03T18:03:37;5.17;;;3.00;;
1799;SDS011;919;48.274;12.292;2022-10-03T18:09:25;2.20;;;2.00;;
1799;SDS011;919;48.274;12.292;2022-10-03T18:17:47;2.40;;;2.20;;
1799;SDS011;919;48.274;12.292;2022-10-03T18:20:40;3.77;;;2.30;;
1799;SDS011;919;48.274;12.292;2022-10-03T18:23:16;2.30;;;2.10;;
1799;SDS011;919;48.274;12.292;2022-10-03T18:25:53;1.67;;;1.57;;
1799;SDS011;919;48.274;12.292;2022-10-03T18:28:25;1.70;;;1.60;;
1799;SDS011;919;48.274;12.292;2022-10-03T18:30:57;2.40;;;1.87;;
1799;SDS011;919;48.274;12.292;2022-10-03T18:33:28;1.53;;;1.43;;
1799;SDS011;919;48.274;12.292;2022-10-03T18:35:57;1.50;;;1.40;;
1799;SDS011;919;48.274;12.292;2022-10-03T18:38:44;3.47;;;1.40;;
1799;SDS011;919;48.274;12.292;2022-10-03T18:41:14;1.50;;;1.40;;
1799;SDS011;919;48.274;12.292;2022-10-03T18:43:43;6.30;;;2.57;;
1799;SDS011;919;48.274;12.292;2022-10-03T18:46:12;2.30;;;2.10;;
1799;SDS011;919;48.274;12.292;2022-10-03T18:48:54;3.50;;;2.23;;
1799;SDS011;919;48.274;12.292;2022-10-03T18:51:25;3.30;;;3.00;;
1799;SDS011;919;48.274;12.292;2022-10-03T18:53:57;2.53;;;2.33;;
1799;SDS011;919;48.274;12.292;2022-10-03T18:56:29;2.43;;;2.23;;
1799;SDS011;919;48.274;12.292;2022-10-03T18:59:14;3.27;;;2.83;;
1799;SDS011;919;48.274;12.292;2022-10-03T19:01:50;1.57;;;1.47;;
1799;SDS011;919;48.274;12.292;2022-10-03T19:04:30;1.83;;;1.70;;
1799;SDS011;919;48.274;12.292;2022-10-03T19:07:03;1.70;;;1.60;;
1799;SDS011;919;48.274;12.292;2022-10-03T19:09:45;3.77;;;1.97;;
1799;SDS011;919;48.274;12.292;2022-10-03T19:12:30;1.50;;;1.40;;
1799;SDS011;919;48.274;12.292;2022-10-03T19:15:04;1.23;;;1.17;;
1799;SDS011;919;48.274;12.292;2022-10-03T19:17:46;1.70;;;1.60;;
1799;SDS011;919;48.274;12.292;2022-10-03T19:20:21;3.00;;;2.40;;
1799;SDS011;919;48.274;12.292;2022-10-03T19:22:57;4.03;;;3.17;;
1799;SDS011;919;48.274;12.292;2022-10-03T19:25:28;3.07;;;2.77;;
1799;SDS011;919;48.274;12.292;2022-10-03T19:27:58;2.30;;;2.10;;
1799;SDS011;919;48.274;12.292;2022-10-03T19:30:30;2.00;;;1.90;;
1799;SDS011;919;48.274;12.292;2022-10-03T19:32:58;4.20;;;2.67;;
1799;SDS011;919;48.274;12.292;2022-10-03T19:35:28;1.83;;;1.70;;
1799;SDS011;919;48.274;12.292;2022-10-03T19:37:59;2.07;;;1.80;;
1799;SDS011;919;48.274;12.292;2022-10-03T19:40:36;2.73;;;1.80;;
1799;SDS011;919;48.274;12.292;2022-10-03T19:43:28;1.57;;;1.40;;
1799;SDS011;919;48.274;12.292;2022-10-03T19:46:09;2.90;;;1.83;;
1799;SDS011;919;48.274;12.292;2022-10-03T19:49:17;3.40;;;3.10;;
1799;SDS011;919;48.274;12.292;2022-10-03T19:51:49;7.10;;;2.80;;
1799;SDS011;919;48.274;12.292;2022-10-03T19:54:26;2.93;;;2.50;;
1799;SDS011;919;48.274;12.292;2022-10-03T19:56:55;6.37;;;2.80;;
1799;SDS011;919;48.274;12.292;2022-10-03T19:59:36;4.07;;;3.13;;
1799;SDS011;919;48.274;12.292;2022-10-03T20:02:10;3.57;;;2.93;;
1799;SDS011;919;48.274;12.292;2022-10-03T20:04:37;2.33;;;2.13;;
1799;SDS011;919;48.274;12.292;2022-10-03T20:07:10;2.57;;;2.37;;